sensor_id;sensor_type;location;lat;lon;timestamp;pressure;altitude;pressure_sealevel;temperature
67353;BMP180;54238;52.278;21.056;2022-12-07T00:02:50;99663.80;;;2.88
67353;BMP180;54238;52.278;21.056;2022-12-07T00:05:22;99659.80;;;2.90
67353;BMP180;54238;52.278;21.056;2022-12-07T00:07:54;99661.60;;;2.90
67353;BMP180;54238;52.278;21.056;2022-12-07T00:10:25;99659.60;;;3.08
67353;BMP180;54238;52.278;21.056;2022-12-07T00:12:52;99656.00;;;3.20
67353;BMP180;54238;52.278;21.056;2022-12-07T00:15:22;99649.20;;;3.20
67353;BMP180;54238;52.278;21.056;2022-12-07T00:17:52;99645.40;;;3.24
67353;BMP180;54238;52.278;21.056;2022-12-07T00:20:21;99646.40;;;3.20
67353;BMP180;54238;52.278;21.056;2022-12-07T00:22:48;99644.00;;;3.10
67353;BMP180;54238;52.278;21.056;2022-12-07T00:25:20;99649.20;;;3.02
67353;BMP180;54238;52.278;21.056;2022-12-07T00:27:53;99643.20;;;2.94
67353;BMP180;54238;52.278;21.056;2022-12-07T00:30:23;99639.80;;;2.90
67353;BMP180;54238;52.278;21.056;2022-12-07T00:32:53;99637.60;;;2.98
67353;BMP180;54238;52.278;21.056;2022-12-07T00:35:22;99635.20;;;3.00
67353;BMP180;54238;52.278;21.056;2022-12-07T00:37:52;99637.80;;;3.06
67353;BMP180;54238;52.278;21.056;2022-12-07T00:40:19;99636.60;;;3.10
67353;BMP180;54238;52.278;21.056;2022-12-07T00:42:46;99636.40;;;3.20
67353;BMP180;54238;52.278;21.056;2022-12-07T00:45:14;99635.80;;;3.30
67353;BMP180;54238;52.278;21.056;2022-12-07T00:47:41;99631.60;;;3.32
67353;BMP180;54238;52.278;21.056;2022-12-07T00:50:12;99634.40;;;3.40
67353;BMP180;54238;52.278;21.056;2022-12-07T00:52:42;99632.60;;;3.30
67353;BMP180;54238;52.278;21.056;2022-12-07T00:55:12;99632.80;;;3.20
67353;BMP180;54238;52.278;21.056;2022-12-07T00:57:39;99630.00;;;3.20
67353;BMP180;54238;52.278;21.056;2022-12-07T01:00:07;99631.60;;;3.20
67353;BMP180;54238;52.278;21.056;2022-12-07T01:02:40;99630.40;;;3.20
67353;BMP180;54238;52.278;21.056;2022-12-07T01:05:09;99626.80;;;3.12
67353;BMP180;54238;52.278;21.056;2022-12-07T01:07:41;99629.40;;;3.20
67353;BMP180;54238;52.278;21.056;2022-12-07T01:10:10;99623.00;;;3.26
67353;BMP180;54238;52.278;21.056;2022-12-07T01:12:39;99622.40;;;3.30
67353;BMP180;54238;52.278;21.056;2022-12-07T01:15:09;99620.20;;;3.40
67353;BMP180;54238;52.278;21.056;2022-12-07T01:17:36;99621.60;;;3.40
67353;BMP180;54238;52.278;21.056;2022-12-07T01:20:05;99620.00;;;3.30
67353;BMP180;54238;52.278;21.056;2022-12-07T01:22:41;99619.20;;;3.20
67353;BMP180;54238;52.278;21.056;2022-12-07T01:25:11;99617.80;;;3.10
67353;BMP180;54238;52.278;21.056;2022-12-07T01:27:43;99621.00;;;3.10
67353;BMP180;54238;52.278;21.056;2022-12-07T01:30:16;99620.80;;;3.20
67353;BMP180;54238;52.278;21.056;2022-12-07T01:32:43;99618.00;;;3.22
67353;BMP180;54238;52.278;21.056;2022-12-07T01:35:10;99622.00;;;3.30
67353;BMP180;54238;52.278;21.056;2022-12-07T01:37:42;99620.40;;;3.40
67353;BMP180;54238;52.278;21.056;2022-12-07T01:40:12;99624.80;;;3.50
67353;BMP180;54238;52.278;21.056;2022-12-07T01:42:39;99622.00;;;3.54
67353;BMP180;54238;52.278;21.056;2022-12-07T01:47:55;99616.80;;;3.60
67353;BMP180;54238;52.278;21.056;2022-12-07T01:50:28;99615.60;;;3.50
67353;BMP180;54238;52.278;21.056;2022-12-07T01:53:03;99612.60;;;3.40
67353;BMP180;54238;52.278;21.056;2022-12-07T01:55:43;99614.20;;;3.34
67353;BMP180;54238;52.278;21.056;2022-12-07T01:58:17;99617.00;;;3.40
67353;BMP180;54238;52.278;21.056;2022-12-07T02:00:47;99614.80;;;3.40
67353;BMP180;54238;52.278;21.056;2022-12-07T02:03:36;99607.20;;;3.40
67353;BMP180;54238;52.278;21.056;2022-12-07T02:06:06;99610.40;;;3.40
67353;BMP180;54238;52.278;21.056;2022-12-07T02:08:42;99607.00;;;3.44
67353;BMP180;54238;52.278;21.056;2022-12-07T02:11:10;99611.40;;;3.48
67353;BMP180;54238;52.278;21.056;2022-12-07T02:13:40;99609.40;;;3.48
67353;BMP180;54238;52.278;21.056;2022-12-07T02:30:47;99600.20;;;3.30
67353;BMP180;54238;52.278;21.056;2022-12-07T02:33:35;99600.20;;;3.40
67353;BMP180;54238;52.278;21.056;2022-12-07T02:36:13;99602.20;;;3.50
67353;BMP180;54238;52.278;21.056;2022-12-07T02:38:57;99603.60;;;3.56
67353;BMP180;54238;52.278;21.056;2022-12-07T02:41:36;99599.80;;;3.50
67353;BMP180;54238;52.278;21.056;2022-12-07T02:44:16;99599.20;;;3.40
67353;BMP180;54238;52.278;21.056;2022-12-07T02:46:54;99600.00;;;3.30
67353;BMP180;54238;52.278;21.056;2022-12-07T02:49:26;99595.00;;;3.30
67353;BMP180;54238;52.278;21.056;2022-12-07T02:51:56;99594.20;;;3.40
67353;BMP180;54238;52.278;21.056;2022-12-07T02:54:28;99590.40;;;3.50
67353;BMP180;54238;52.278;21.056;2022-12-07T03:00:08;99590.80;;;3.42
67353;BMP180;54238;52.278;21.056;2022-12-07T03:06:03;99591.00;;;3.40
67353;BMP180;54238;52.278;21.056;2022-12-07T03:11:48;99586.00;;;3.50
67353;BMP180;54238;52.278;21.056;2022-12-07T03:14:30;99587.80;;;3.50
67353;BMP180;54238;52.278;21.056;2022-12-07T03:17:08;99580.00;;;3.50
67353;BMP180;54238;52.278;21.056;2022-12-07T03:19:44;99579.40;;;3.34
67353;BMP180;54238;52.278;21.056;2022-12-07T03:22:14;99577.80;;;3.26
67353;BMP180;54238;52.278;21.056;2022-12-07T03:25:02;99575.80;;;3.20
67353;BMP180;54238;52.278;21.056;2022-12-07T03:27:55;99578.40;;;3.10
67353;BMP180;54238;52.278;21.056;2022-12-07T03:33:33;99570.40;;;3.00
67353;BMP180;54238;52.278;21.056;2022-12-07T03:36:10;99571.20;;;3.02
67353;BMP180;54238;52.278;21.056;2022-12-07T03:39:17;99567.00;;;3.10
67353;BMP180;54238;52.278;21.056;2022-12-07T03:41:51;99562.20;;;3.20
67353;BMP180;54238;52.278;21.056;2022-12-07T03:44:22;99559.60;;;3.20
67353;BMP180;54238;52.278;21.056;2022-12-07T03:49:52;99555.00;;;3.00
67353;BMP180;54238;52.278;21.056;2022-12-07T03:52:39;99554.60;;;2.92
67353;BMP180;54238;52.278;21.056;2022-12-07T03:55:34;99555.40;;;3.00
67353;BMP180;54238;52.278;21.056;2022-12-07T03:58:12;99550.00;;;3.10
67353;BMP180;54238;52.278;21.056;2022-12-07T04:00:42;99547.20;;;3.10
67353;BMP180;54238;52.278;21.056;2022-12-07T04:03:14;99550.80;;;3.12
67353;BMP180;54238;52.278;21.056;2022-12-07T04:05:42;99545.60;;;3.10
67353;BMP180;54238;52.278;21.056;2022-12-07T04:08:12;99543.40;;;3.00
67353;BMP180;54238;52.278;21.056;2022-12-07T04:10:39;99541.60;;;2.92
67353;BMP180;54238;52.278;21.056;2022-12-07T04:13:09;99541.40;;;2.80
67353;BMP180;54238;52.278;21.056;2022-12-07T04:15:41;99542.60;;;2.80
67353;BMP180;54238;52.278;21.056;2022-12-07T04:18:08;99543.20;;;2.80
67353;BMP180;54238;52.278;21.056;2022-12-07T04:20:35;99544.60;;;2.80
67353;BMP180;54238;52.278;21.056;2022-12-07T04:23:05;99538.00;;;2.90
67353;BMP180;54238;52.278;21.056;2022-12-07T04:25:33;99540.40;;;2.90
67353;BMP180;54238;52.278;21.056;2022-12-07T04:28:00;99541.80;;;3.00
67353;BMP180;54238;52.278;21.056;2022-12-07T04:30:28;99545.60;;;3.10
67353;BMP180;54238;52.278;21.056;2022-12-07T04:32:58;99542.00;;;3.00
67353;BMP180;54238;52.278;21.056;2022-12-07T04:35:26;99545.80;;;2.90
67353;BMP180;54238;52.278;21.056;2022-12-07T04:37:55;99532.00;;;2.80
67353;BMP180;54238;52.278;21.056;2022-12-07T04:40:24;99536.40;;;2.76
67353;BMP180;54238;52.278;21.056;2022-12-07T04:42:56;99538.80;;;2.74
67353;BMP180;54238;52.278;21.056;2022-12-07T04:45:26;99533.60;;;2.80
67353;BMP180;54238;52.278;21.056;2022-12-07T04:47:55;99534.80;;;2.80
67353;BMP180;54238;52.278;21.056;2022-12-07T04:50:27;99539.20;;;2.90
67353;BMP180;54238;52.278;21.056;2022-12-07T04:52:59;99535.80;;;3.00
67353;BMP180;54238;52.278;21.056;2022-12-07T04:55:26;99541.00;;;3.08
67353;BMP180;54238;52.278;21.056;2022-12-07T04:57:53;99537.60;;;3.00
67353;BMP180;54238;52.278;21.056;2022-12-07T05:00:22;99531.60;;;2.90
67353;BMP180;54238;52.278;21.056;2022-12-07T05:02:50;99532.20;;;2.80
67353;BMP180;54238;52.278;21.056;2022-12-07T05:05:17;99531.20;;;2.80
67353;BMP180;54238;52.278;21.056;2022-12-07T05:07:44;99530.60;;;2.80
67353;BMP180;54238;52.278;21.056;2022-12-07T05:10:11;99526.40;;;2.86
67353;BMP180;54238;52.278;21.056;2022-12-07T05:12:41;99522.80;;;2.90
67353;BMP180;54238;52.278;21.056;2022-12-07T05:15:09;99518.00;;;2.80
67353;BMP180;54238;52.278;21.056;2022-12-07T05:17:39;99514.60;;;2.70
67353;BMP180;54238;52.278;21.056;2022-12-07T05:20:08;99515.20;;;2.64
67353;BMP180;54238;52.278;21.056;2022-12-07T05:22:38;99519.40;;;2.60
67353;BMP180;54238;52.278;21.056;2022-12-07T05:25:08;99510.80;;;2.60
67353;BMP180;54238;52.278;21.056;2022-12-07T05:27:39;99510.20;;;2.60
67353;BMP180;54238;52.278;21.056;2022-12-07T05:30:07;99508.80;;;2.72
67353;BMP180;54238;52.278;21.056;2022-12-07T05:32:37;99513.00;;;2.80
67353;BMP180;54238;52.278;21.056;2022-12-07T05:35:08;99512.20;;;2.80
67353;BMP180;54238;52.278;21.056;2022-12-07T05:37:35;99513.80;;;2.70
67353;BMP180;54238;52.278;21.056;2022-12-07T05:40:04;99508.60;;;2.60
67353;BMP180;54238;52.278;21.056;2022-12-07T05:42:32;99511.20;;;2.50
67353;BMP180;54238;52.278;21.056;2022-12-07T05:45:06;99510.00;;;2.42
67353;BMP180;54238;52.278;21.056;2022-12-07T05:47:33;99512.80;;;2.50
67353;BMP180;54238;52.278;21.056;2022-12-07T05:50:01;99517.00;;;2.50
67353;BMP180;54238;52.278;21.056;2022-12-07T05:52:31;99517.00;;;2.50
67353;BMP180;54238;52.278;21.056;2022-12-07T05:55:00;99514.40;;;2.50
67353;BMP180;54238;52.278;21.056;2022-12-07T05:57:27;99521.20;;;2.60
67353;BMP180;54238;52.278;21.056;2022-12-07T05:59:56;99519.80;;;2.70
67353;BMP180;54238;52.278;21.056;2022-12-07T06:02:26;99513.60;;;2.70
67353;BMP180;54238;52.278;21.056;2022-12-07T06:04:55;99526.20;;;2.70
67353;BMP180;54238;52.278;21.056;2022-12-07T06:07:22;99519.20;;;2.60
67353;BMP180;54238;52.278;21.056;2022-12-07T06:09:49;99515.00;;;2.50
67353;BMP180;54238;52.278;21.056;2022-12-07T06:12:16;99511.60;;;2.50
67353;BMP180;54238;52.278;21.056;2022-12-07T06:15:02;99519.00;;;2.50
67353;BMP180;54238;52.278;21.056;2022-12-07T06:17:35;99520.40;;;2.60
67353;BMP180;54238;52.278;21.056;2022-12-07T06:20:04;99517.60;;;2.60
67353;BMP180;54238;52.278;21.056;2022-12-07T06:22:31;99516.00;;;2.60
67353;BMP180;54238;52.278;21.056;2022-12-07T06:24:59;99514.40;;;2.50
67353;BMP180;54238;52.278;21.056;2022-12-07T06:27:26;99516.60;;;2.40
67353;BMP180;54238;52.278;21.056;2022-12-07T06:29:53;99509.00;;;2.30
67353;BMP180;54238;52.278;21.056;2022-12-07T06:32:27;99502.60;;;2.30
67353;BMP180;54238;52.278;21.056;2022-12-07T06:34:54;99512.00;;;2.30
67353;BMP180;54238;52.278;21.056;2022-12-07T06:37:23;99511.00;;;2.30
67353;BMP180;54238;52.278;21.056;2022-12-07T06:39:50;99509.80;;;2.24
67353;BMP180;54238;52.278;21.056;2022-12-07T06:42:22;99504.00;;;2.22
67353;BMP180;54238;52.278;21.056;2022-12-07T06:44:51;99501.80;;;2.30
67353;BMP180;54238;52.278;21.056;2022-12-07T06:47:18;99503.00;;;2.38
67353;BMP180;54238;52.278;21.056;2022-12-07T06:49:45;99504.60;;;2.40
67353;BMP180;54238;52.278;21.056;2022-12-07T06:52:15;99508.80;;;2.50
67353;BMP180;54238;52.278;21.056;2022-12-07T06:54:44;99508.20;;;2.50
67353;BMP180;54238;52.278;21.056;2022-12-07T06:57:11;99505.00;;;2.50
67353;BMP180;54238;52.278;21.056;2022-12-07T06:59:41;99500.20;;;2.40
67353;BMP180;54238;52.278;21.056;2022-12-07T07:02:10;99503.60;;;2.34
67353;BMP180;54238;52.278;21.056;2022-12-07T07:04:38;99510.20;;;2.28
67353;BMP180;54238;52.278;21.056;2022-12-07T07:07:07;99512.80;;;2.20
67353;BMP180;54238;52.278;21.056;2022-12-07T07:09:41;99513.00;;;2.20
67353;BMP180;54238;52.278;21.056;2022-12-07T07:12:08;99510.40;;;2.28
67353;BMP180;54238;52.278;21.056;2022-12-07T07:14:35;99514.80;;;2.30
67353;BMP180;54238;52.278;21.056;2022-12-07T07:17:03;99513.40;;;2.34
67353;BMP180;54238;52.278;21.056;2022-12-07T07:19:32;99507.40;;;2.36
67353;BMP180;54238;52.278;21.056;2022-12-07T07:22:02;99512.40;;;2.30
67353;BMP180;54238;52.278;21.056;2022-12-07T07:24:37;99513.80;;;2.20
67353;BMP180;54238;52.278;21.056;2022-12-07T07:27:07;99501.20;;;2.10
67353;BMP180;54238;52.278;21.056;2022-12-07T07:29:34;99502.40;;;2.00
67353;BMP180;54238;52.278;21.056;2022-12-07T07:32:03;99504.60;;;2.00
67353;BMP180;54238;52.278;21.056;2022-12-07T07:34:31;99506.60;;;1.94
67353;BMP180;54238;52.278;21.056;2022-12-07T07:37:01;99509.20;;;1.96
67353;BMP180;54238;52.278;21.056;2022-12-07T07:39:31;99511.80;;;2.00
67353;BMP180;54238;52.278;21.056;2022-12-07T07:42:00;99506.00;;;2.10
67353;BMP180;54238;52.278;21.056;2022-12-07T07:44:27;99513.40;;;2.20
67353;BMP180;54238;52.278;21.056;2022-12-07T07:46:56;99507.80;;;2.24
67353;BMP180;54238;52.278;21.056;2022-12-07T07:49:36;99515.60;;;2.24
67353;BMP180;54238;52.278;21.056;2022-12-07T07:52:05;99514.00;;;2.20
67353;BMP180;54238;52.278;21.056;2022-12-07T07:54:39;99506.00;;;2.10
67353;BMP180;54238;52.278;21.056;2022-12-07T07:57:14;99507.00;;;2.06
67353;BMP180;54238;52.278;21.056;2022-12-07T07:59:44;99505.00;;;2.00
67353;BMP180;54238;52.278;21.056;2022-12-07T08:02:17;99510.60;;;2.00
67353;BMP180;54238;52.278;21.056;2022-12-07T08:04:45;99510.60;;;2.00
67353;BMP180;54238;52.278;21.056;2022-12-07T08:07:17;99510.00;;;2.10
67353;BMP180;54238;52.278;21.056;2022-12-07T08:09:47;99509.60;;;2.20
67353;BMP180;54238;52.278;21.056;2022-12-07T08:12:14;99510.80;;;2.28
67353;BMP180;54238;52.278;21.056;2022-12-07T08:14:44;99507.40;;;2.36
67353;BMP180;54238;52.278;21.056;2022-12-07T08:17:11;99522.60;;;2.40
67353;BMP180;54238;52.278;21.056;2022-12-07T08:19:39;99523.00;;;2.40
67353;BMP180;54238;52.278;21.056;2022-12-07T08:22:09;99516.60;;;2.40
67353;BMP180;54238;52.278;21.056;2022-12-07T08:24:36;99526.80;;;2.30
67353;BMP180;54238;52.278;21.056;2022-12-07T08:27:05;99516.20;;;2.24
67353;BMP180;54238;52.278;21.056;2022-12-07T08:29:37;99521.20;;;2.20
67353;BMP180;54238;52.278;21.056;2022-12-07T08:32:06;99527.20;;;2.18
67353;BMP180;54238;52.278;21.056;2022-12-07T08:34:36;99517.00;;;2.10
67353;BMP180;54238;52.278;21.056;2022-12-07T08:37:06;99529.80;;;2.10
67353;BMP180;54238;52.278;21.056;2022-12-07T08:39:33;99534.40;;;2.20
67353;BMP180;54238;52.278;21.056;2022-12-07T08:42:02;99531.20;;;2.20
67353;BMP180;54238;52.278;21.056;2022-12-07T08:44:34;99527.60;;;2.24
67353;BMP180;54238;52.278;21.056;2022-12-07T08:47:07;99531.60;;;2.30
67353;BMP180;54238;52.278;21.056;2022-12-07T08:49:45;99532.20;;;2.40
67353;BMP180;54238;52.278;21.056;2022-12-07T08:52:13;99523.80;;;2.60
67353;BMP180;54238;52.278;21.056;2022-12-07T08:54:41;99530.00;;;2.70
67353;BMP180;54238;52.278;21.056;2022-12-07T08:57:11;99525.40;;;2.84
67353;BMP180;54238;52.278;21.056;2022-12-07T08:59:41;99525.40;;;2.90
67353;BMP180;54238;52.278;21.056;2022-12-07T09:02:11;99526.60;;;2.90
67353;BMP180;54238;52.278;21.056;2022-12-07T09:04:40;99534.20;;;2.88
67353;BMP180;54238;52.278;21.056;2022-12-07T09:07:12;99526.40;;;2.90
67353;BMP180;54238;52.278;21.056;2022-12-07T09:09:39;99526.00;;;3.02
67353;BMP180;54238;52.278;21.056;2022-12-07T09:12:09;99527.00;;;3.20
67353;BMP180;54238;52.278;21.056;2022-12-07T09:14:38;99521.00;;;3.30
67353;BMP180;54238;52.278;21.056;2022-12-07T09:17:12;99520.20;;;3.40
67353;BMP180;54238;52.278;21.056;2022-12-07T09:19:44;99516.00;;;3.40
67353;BMP180;54238;52.278;21.056;2022-12-07T09:22:13;99517.20;;;3.40
67353;BMP180;54238;52.278;21.056;2022-12-07T09:24:43;99508.40;;;3.40
67353;BMP180;54238;52.278;21.056;2022-12-07T09:27:12;99510.40;;;3.42
67353;BMP180;54238;52.278;21.056;2022-12-07T09:29:44;99505.40;;;3.50
67353;BMP180;54238;52.278;21.056;2022-12-07T09:32:13;99505.40;;;3.60
67353;BMP180;54238;52.278;21.056;2022-12-07T09:34:40;99509.60;;;3.70
67353;BMP180;54238;52.278;21.056;2022-12-07T09:37:07;99511.20;;;3.90
67353;BMP180;54238;52.278;21.056;2022-12-07T09:39:40;99505.60;;;3.90
67353;BMP180;54238;52.278;21.056;2022-12-07T09:42:11;99500.80;;;3.90
67353;BMP180;54238;52.278;21.056;2022-12-07T09:44:45;99498.80;;;3.80
67353;BMP180;54238;52.278;21.056;2022-12-07T09:47:12;99494.20;;;3.80
67353;BMP180;54238;52.278;21.056;2022-12-07T09:49:46;99498.40;;;3.76
67353;BMP180;54238;52.278;21.056;2022-12-07T09:52:37;99501.80;;;3.82
67353;BMP180;54238;52.278;21.056;2022-12-07T09:55:13;99501.40;;;4.00
67353;BMP180;54238;52.278;21.056;2022-12-07T09:57:45;99498.80;;;4.10
67353;BMP180;54238;52.278;21.056;2022-12-07T10:00:17;99501.00;;;4.10
67353;BMP180;54238;52.278;21.056;2022-12-07T10:02:53;99499.20;;;4.10
67353;BMP180;54238;52.278;21.056;2022-12-07T10:05:48;99499.80;;;4.10
67353;BMP180;54238;52.278;21.056;2022-12-07T10:08:17;99501.80;;;4.00
67353;BMP180;54238;52.278;21.056;2022-12-07T10:10:50;99489.60;;;4.10
67353;BMP180;54238;52.278;21.056;2022-12-07T10:13:35;99491.60;;;4.20
67353;BMP180;54238;52.278;21.056;2022-12-07T10:16:02;99488.80;;;4.30
67353;BMP180;54238;52.278;21.056;2022-12-07T10:18:40;99481.40;;;4.30
67353;BMP180;54238;52.278;21.056;2022-12-07T10:21:18;99486.00;;;4.20
67353;BMP180;54238;52.278;21.056;2022-12-07T10:24:05;99493.60;;;4.10
67353;BMP180;54238;52.278;21.056;2022-12-07T10:26:51;99482.20;;;4.00
67353;BMP180;54238;52.278;21.056;2022-12-07T10:32:00;99481.20;;;4.00
67353;BMP180;54238;52.278;21.056;2022-12-07T10:34:34;99490.40;;;4.10
67353;BMP180;54238;52.278;21.056;2022-12-07T10:41:30;99482.00;;;4.04
67353;BMP180;54238;52.278;21.056;2022-12-07T10:43:59;99479.40;;;4.00
67353;BMP180;54238;52.278;21.056;2022-12-07T10:50:39;99481.20;;;3.90
67353;BMP180;54238;52.278;21.056;2022-12-07T10:59:42;99477.20;;;3.90
67353;BMP180;54238;52.278;21.056;2022-12-07T11:03:01;99481.20;;;3.84
67353;BMP180;54238;52.278;21.056;2022-12-07T11:12:33;99481.20;;;3.90
67353;BMP180;54238;52.278;21.056;2022-12-07T11:18:27;99476.80;;;4.10
67353;BMP180;54238;52.278;21.056;2022-12-07T11:30:02;99472.00;;;3.90
67353;BMP180;54238;52.278;21.056;2022-12-07T11:32:49;99473.40;;;4.06
67353;BMP180;54238;52.278;21.056;2022-12-07T11:35:55;99473.40;;;4.10
67353;BMP180;54238;52.278;21.056;2022-12-07T11:38:43;99475.20;;;3.90
67353;BMP180;54238;52.278;21.056;2022-12-07T11:41:23;99475.20;;;3.80
67353;BMP180;54238;52.278;21.056;2022-12-07T11:46:56;99472.00;;;3.82
67353;BMP180;54238;52.278;21.056;2022-12-07T11:52:48;99462.20;;;3.92
67353;BMP180;54238;52.278;21.056;2022-12-07T11:55:45;99462.60;;;4.10
67353;BMP180;54238;52.278;21.056;2022-12-07T12:06:41;99464.60;;;4.30
67353;BMP180;54238;52.278;21.056;2022-12-07T12:09:12;99463.80;;;4.20
67353;BMP180;54238;52.278;21.056;2022-12-07T12:20:48;99441.80;;;4.40
67353;BMP180;54238;52.278;21.056;2022-12-07T12:23:24;99442.20;;;4.40
67353;BMP180;54238;52.278;21.056;2022-12-07T12:26:03;99435.60;;;4.30
67353;BMP180;54238;52.278;21.056;2022-12-07T12:28:49;99438.00;;;4.20
67353;BMP180;54238;52.278;21.056;2022-12-07T12:33:55;99444.00;;;3.96
67353;BMP180;54238;52.278;21.056;2022-12-07T12:36:46;99440.00;;;3.82
67353;BMP180;54238;52.278;21.056;2022-12-07T12:39:18;99438.80;;;3.72
67353;BMP180;54238;52.278;21.056;2022-12-07T12:55:19;99425.80;;;4.00
67353;BMP180;54238;52.278;21.056;2022-12-07T13:03:57;99441.20;;;3.80
67353;BMP180;54238;52.278;21.056;2022-12-07T13:09:01;99423.00;;;3.90
67353;BMP180;54238;52.278;21.056;2022-12-07T13:11:35;99423.00;;;4.00
67353;BMP180;54238;52.278;21.056;2022-12-07T13:14:40;99425.40;;;4.10
67353;BMP180;54238;52.278;21.056;2022-12-07T13:20:00;99414.40;;;3.90
67353;BMP180;54238;52.278;21.056;2022-12-07T13:25:12;99417.80;;;3.80
67353;BMP180;54238;52.278;21.056;2022-12-07T13:28:06;99422.40;;;3.80
67353;BMP180;54238;52.278;21.056;2022-12-07T13:31:02;99421.20;;;3.88
67353;BMP180;54238;52.278;21.056;2022-12-07T13:33:36;99423.60;;;3.80
67353;BMP180;54238;52.278;21.056;2022-12-07T13:39:23;99422.60;;;3.50
67353;BMP180;54238;52.278;21.056;2022-12-07T13:41:53;99423.20;;;3.50
67353;BMP180;54238;52.278;21.056;2022-12-07T13:44:24;99430.60;;;3.50
67353;BMP180;54238;52.278;21.056;2022-12-07T13:49:29;99426.60;;;3.60
67353;BMP180;54238;52.278;21.056;2022-12-07T13:54:59;99420.40;;;3.40
67353;BMP180;54238;52.278;21.056;2022-12-07T13:57:33;99433.40;;;3.40
67353;BMP180;54238;52.278;21.056;2022-12-07T14:00:06;99422.20;;;3.42
67353;BMP180;54238;52.278;21.056;2022-12-07T14:03:23;99424.00;;;3.50
67353;BMP180;54238;52.278;21.056;2022-12-07T14:08:42;99421.20;;;3.50
67353;BMP180;54238;52.278;21.056;2022-12-07T14:11:19;99426.60;;;3.40
67353;BMP180;54238;52.278;21.056;2022-12-07T14:16:34;99424.20;;;3.40
67353;BMP180;54238;52.278;21.056;2022-12-07T14:19:05;99421.00;;;3.50
67353;BMP180;54238;52.278;21.056;2022-12-07T14:21:34;99429.40;;;3.58
67353;BMP180;54238;52.278;21.056;2022-12-07T14:24:18;99429.40;;;3.50
67353;BMP180;54238;52.278;21.056;2022-12-07T14:26:51;99427.60;;;3.50
67353;BMP180;54238;52.278;21.056;2022-12-07T14:31:56;99434.80;;;3.20
67353;BMP180;54238;52.278;21.056;2022-12-07T14:34:25;99438.00;;;3.20
67353;BMP180;54238;52.278;21.056;2022-12-07T14:36:57;99431.20;;;3.30
67353;BMP180;54238;52.278;21.056;2022-12-07T14:39:26;99430.80;;;3.30
67353;BMP180;54238;52.278;21.056;2022-12-07T14:41:58;99434.00;;;3.30
67353;BMP180;54238;52.278;21.056;2022-12-07T14:44:32;99431.00;;;3.30
67353;BMP180;54238;52.278;21.056;2022-12-07T14:46:59;99435.60;;;3.20
67353;BMP180;54238;52.278;21.056;2022-12-07T14:49:31;99435.80;;;3.10
67353;BMP180;54238;52.278;21.056;2022-12-07T14:52:04;99424.60;;;3.00
67353;BMP180;54238;52.278;21.056;2022-12-07T14:54:35;99432.20;;;3.00
67353;BMP180;54238;52.278;21.056;2022-12-07T14:57:02;99440.60;;;3.08
67353;BMP180;54238;52.278;21.056;2022-12-07T14:59:36;99430.00;;;3.10
67353;BMP180;54238;52.278;21.056;2022-12-07T15:02:06;99427.60;;;3.10
67353;BMP180;54238;52.278;21.056;2022-12-07T15:04:38;99432.20;;;3.10
67353;BMP180;54238;52.278;21.056;2022-12-07T15:07:19;99425.20;;;2.94
67353;BMP180;54238;52.278;21.056;2022-12-07T15:09:50;99431.20;;;2.80
67353;BMP180;54238;52.278;21.056;2022-12-07T15:12:17;99424.60;;;2.70
67353;BMP180;54238;52.278;21.056;2022-12-07T15:14:50;99421.20;;;2.70
67353;BMP180;54238;52.278;21.056;2022-12-07T15:17:17;99425.00;;;2.74
67353;BMP180;54238;52.278;21.056;2022-12-07T15:19:46;99414.60;;;2.80
67353;BMP180;54238;52.278;21.056;2022-12-07T15:22:13;99415.20;;;2.80
67353;BMP180;54238;52.278;21.056;2022-12-07T15:24:40;99412.20;;;2.72
67353;BMP180;54238;52.278;21.056;2022-12-07T15:27:10;99413.00;;;2.70
67353;BMP180;54238;52.278;21.056;2022-12-07T15:29:36;99414.40;;;2.60
67353;BMP180;54238;52.278;21.056;2022-12-07T15:32:04;99405.40;;;2.50
67353;BMP180;54238;52.278;21.056;2022-12-07T15:34:34;99410.00;;;2.50
67353;BMP180;54238;52.278;21.056;2022-12-07T15:37:03;99397.20;;;2.50
67353;BMP180;54238;52.278;21.056;2022-12-07T15:39:31;99403.80;;;2.60
67353;BMP180;54238;52.278;21.056;2022-12-07T15:42:00;99407.60;;;2.70
67353;BMP180;54238;52.278;21.056;2022-12-07T15:44:30;99397.20;;;2.80
67353;BMP180;54238;52.278;21.056;2022-12-07T15:47:16;99402.20;;;2.92
67353;BMP180;54238;52.278;21.056;2022-12-07T15:49:45;99407.00;;;3.00
67353;BMP180;54238;52.278;21.056;2022-12-07T15:52:14;99412.20;;;2.90
67353;BMP180;54238;52.278;21.056;2022-12-07T15:54:42;99407.60;;;2.88
67353;BMP180;54238;52.278;21.056;2022-12-07T15:57:13;99408.80;;;2.80
67353;BMP180;54238;52.278;21.056;2022-12-07T15:59:45;99401.80;;;2.70
67353;BMP180;54238;52.278;21.056;2022-12-07T16:02:20;99404.80;;;2.70
67353;BMP180;54238;52.278;21.056;2022-12-07T16:04:47;99403.80;;;2.70
67353;BMP180;54238;52.278;21.056;2022-12-07T16:07:14;99400.20;;;2.70
67353;BMP180;54238;52.278;21.056;2022-12-07T16:09:48;99397.20;;;2.70
67353;BMP180;54238;52.278;21.056;2022-12-07T16:12:18;99393.80;;;2.80
67353;BMP180;54238;52.278;21.056;2022-12-07T16:14:45;99398.00;;;2.86
67353;BMP180;54238;52.278;21.056;2022-12-07T16:17:14;99392.40;;;2.88
67353;BMP180;54238;52.278;21.056;2022-12-07T16:19:42;99392.20;;;2.90
67353;BMP180;54238;52.278;21.056;2022-12-07T16:22:11;99393.80;;;3.00
67353;BMP180;54238;52.278;21.056;2022-12-07T16:24:39;99398.80;;;3.10
67353;BMP180;54238;52.278;21.056;2022-12-07T16:27:08;99397.80;;;3.10
67353;BMP180;54238;52.278;21.056;2022-12-07T16:29:38;99396.00;;;3.10
67353;BMP180;54238;52.278;21.056;2022-12-07T16:32:07;99398.80;;;3.02
67353;BMP180;54238;52.278;21.056;2022-12-07T16:34:34;99400.20;;;2.92
67353;BMP180;54238;52.278;21.056;2022-12-07T16:37:02;99394.60;;;2.90
67353;BMP180;54238;52.278;21.056;2022-12-07T16:39:36;99399.60;;;2.90
67353;BMP180;54238;52.278;21.056;2022-12-07T16:42:03;99400.80;;;3.00
67353;BMP180;54238;52.278;21.056;2022-12-07T16:44:30;99404.80;;;3.12
67353;BMP180;54238;52.278;21.056;2022-12-07T16:47:00;99400.20;;;3.20
67353;BMP180;54238;52.278;21.056;2022-12-07T16:49:29;99407.80;;;3.20
67353;BMP180;54238;52.278;21.056;2022-12-07T16:51:59;99391.20;;;3.20
67353;BMP180;54238;52.278;21.056;2022-12-07T16:54:28;99388.40;;;3.10
67353;BMP180;54238;52.278;21.056;2022-12-07T16:57:00;99379.20;;;3.10
67353;BMP180;54238;52.278;21.056;2022-12-07T16:59:27;99383.60;;;3.16